Terminal Aerodrome Forecast
Issued by NWS

Home | Current Version | Previous Version | Text Only | Print | Product List | Glossary On
Versions: 1 2 3 4 5 6 7 8 9 10 11 12 13 14 15 16 17 18 19
000
FTUS46 KMTR 051750 CCA
TAFMRY
TAF COR
KMRY 051750Z 0518/0618 VRB04KT P6SM SCT017
     FM051900 27011G16KT P6SM FEW017 FEW200
     FM060100 25010G15KT P6SM BKN012
     FM060300 24008KT P6SM OVC010
     FM060600 VRB03KT P6SM OVC007
     FM061730 VRB04KT P6SM FEW008 SCT012=

USA.gov is the U.S. government's official web portal to all federal, state and local government web resources and services.